Time;durP1;ratioP1;P1;durP2;ratioP2;P2;SDS_P1;SDS_P2;PMS_P1;PMS_P2;Temp;Humidity;BMP_temperature;BMP_pressure;BME280_temperature;BME280_humidity;BME280_pressure;Samples;Min_cycle;Max_cycle;Signal;HPM_P1;HPM_P2
2023/05/25 00:00:22;;;;;;;9.38;2.45;;;14.60;99.90;;;;;;7388936;19;20135;-73
2023/05/25 00:02:49;;;;;;;6.20;2.25;;;14.60;99.90;;;;;;7387083;19;20146;-73
2023/05/25 00:05:17;;;;;;;5.60;2.28;;;14.50;99.90;;;;;;7387783;19;20156;-73
2023/05/25 00:07:42;;;;;;;6.22;1.95;;;14.50;99.90;;;;;;7388403;19;20181;-73
2023/05/25 00:10:08;;;;;;;6.53;1.95;;;14.60;99.90;;;;;;7387656;19;20142;-72
2023/05/25 00:12:35;;;;;;;7.70;2.50;;;14.40;99.90;;;;;;7387515;19;20173;-72
2023/05/25 00:15:01;;;;;;;2.90;1.80;;;14.40;99.90;;;;;;7387382;19;20142;-71
2023/05/25 00:17:28;;;;;;;4.95;2.08;;;14.40;99.90;;;;;;7388457;19;20154;-72
2023/05/25 00:19:56;;;;;;;5.40;1.83;;;14.40;99.90;;;;;;7386842;19;20139;-72
2023/05/25 00:22:22;;;;;;;5.05;2.30;;;14.50;99.90;;;;;;7386424;19;20135;-72
2023/05/25 00:24:48;;;;;;;6.20;2.10;;;14.50;99.90;;;;;;7387531;19;20137;-72
2023/05/25 00:27:14;;;;;;;9.75;2.17;;;14.40;99.90;;;;;;7387891;19;20602;-72
2023/05/25 00:29:39;;;;;;;6.63;2.25;;;14.50;99.90;;;;;;7386552;19;20141;-72
2023/05/25 00:32:05;;;;;;;4.75;2.03;;;14.50;99.90;;;;;;7388749;19;20210;-72
2023/05/25 00:34:31;;;;;;;3.92;1.73;;;14.50;99.90;;;;;;7387754;19;20167;-72
2023/05/25 00:36:57;;;;;;;3.95;1.90;;;14.50;99.90;;;;;;7387293;19;20135;-71
2023/05/25 00:39:22;;;;;;;6.20;2.50;;;14.50;99.90;;;;;;7388286;19;20149;-72
2023/05/25 00:41:48;;;;;;;5.97;2.42;;;14.60;99.90;;;;;;7387431;19;20170;-73
2023/05/25 00:44:15;;;;;;;5.45;2.35;;;14.60;99.90;;;;;;7390203;19;20141;-72
2023/05/25 00:46:47;;;;;;;4.40;2.15;;;14.60;99.90;;;;;;7386359;19;20150;-73
2023/05/25 00:49:14;;;;;;;5.95;2.35;;;14.50;99.90;;;;;;7387500;19;20475;-72
2023/05/25 00:51:41;;;;;;;4.30;1.90;;;14.50;99.90;;;;;;7387421;19;20161;-72
2023/05/25 00:54:06;;;;;;;4.45;2.13;;;14.40;99.90;;;;;;7389204;19;20198;-72
2023/05/25 00:56:39;;;;;;;6.63;2.20;;;14.40;99.90;;;;;;7387623;19;20159;-72
2023/05/25 00:59:06;;;;;;;6.18;2.22;;;14.40;99.90;;;;;;7389194;19;20516;-72
2023/05/25 01:01:39;;;;;;;5.97;2.10;;;14.40;99.90;;;;;;7387626;19;20153;-72
2023/05/25 01:04:09;;;;;;;5.20;2.17;;;14.40;99.90;;;;;;7389762;19;20138;-72
2023/05/25 01:06:38;;;;;;;4.18;1.80;;;14.30;99.90;;;;;;7382927;19;20130;-73
2023/05/25 01:09:04;;;;;;;4.85;1.90;;;14.30;99.90;;;;;;7386467;19;20154;-72
2023/05/25 01:11:41;;;;;;;7.03;2.50;;;14.50;99.90;;;;;;7384994;19;20146;-71
2023/05/25 01:14:07;;;;;;;5.43;2.28;;;14.30;99.90;;;;;;7388092;19;20157;-72
2023/05/25 01:16:36;;;;;;;4.47;1.80;;;14.30;99.90;;;;;;7382512;19;20146;-72
2023/05/25 01:19:02;;;;;;;5.32;2.00;;;14.30;99.90;;;;;;7388385;19;20138;-73
2023/05/25 01:21:53;;;;;;;6.00;2.20;;;14.40;99.90;;;;;;7386959;19;20153;-71
2023/05/25 01:24:47;;;;;;;6.32;2.40;;;14.30;99.90;;;;;;7386217;19;20126;-71
2023/05/25 01:27:29;;;;;;;4.93;1.92;;;14.30;99.90;;;;;;7386477;19;20166;-70
2023/05/25 01:29:56;;;;;;;4.07;2.10;;;14.20;99.90;;;;;;7383607;19;20153;-73
2023/05/25 01:32:22;;;;;;;6.07;2.08;;;14.20;99.90;;;;;;7384866;19;20146;-73
2023/05/25 01:34:49;;;;;;;5.15;2.30;;;14.20;99.90;;;;;;7395707;19;20152;-72
2023/05/25 01:37:18;;;;;;;4.45;2.47;;;14.10;99.90;;;;;;7402847;19;20131;-72
2023/05/25 01:39:44;;;;;;;9.00;2.70;;;14.20;99.90;;;;;;7401156;19;20146;-72
2023/05/25 01:42:10;;;;;;;6.18;1.90;;;14.10;99.90;;;;;;7399048;19;20175;-73
2023/05/25 01:44:37;;;;;;;6.35;2.25;;;14.10;99.90;;;;;;7400362;19;20139;-71
2023/05/25 01:47:13;;;;;;;4.18;2.20;;;14.10;99.90;;;;;;7398623;19;20150;-72
2023/05/25 01:49:52;;;;;;;5.00;1.83;;;14.20;99.90;;;;;;7400377;19;20138;-71
2023/05/25 01:52:31;;;;;;;4.88;2.17;;;14.30;99.90;;;;;;7399296;19;20777;-72
2023/05/25 01:55:05;;;;;;;4.50;2.38;;;14.20;99.90;;;;;;7399252;19;20161;-72
2023/05/25 01:57:34;;;;;;;3.92;1.73;;;14.20;99.90;;;;;;7401641;19;20164;-71
2023/05/25 02:00:02;;;;;;;5.00;2.05;;;14.20;99.90;;;;;;7400600;19;20150;-72
2023/05/25 02:02:29;;;;;;;5.18;1.95;;;14.20;99.90;;;;;;7397257;19;20179;-73
2023/05/25 02:04:55;;;;;;;4.35;1.80;;;14.20;99.90;;;;;;7399443;19;20595;-71
2023/05/25 02:07:24;;;;;;;4.43;1.90;;;14.20;99.90;;;;;;7398427;19;20221;-72
2023/05/25 02:09:50;;;;;;;4.65;1.77;;;14.20;99.90;;;;;;7397622;19;20825;-72
2023/05/25 02:12:16;;;;;;;7.22;2.40;;;14.10;99.90;;;;;;7397856;19;20149;-71
2023/05/25 02:14:41;;;;;;;4.50;1.83;;;14.10;99.90;;;;;;7390224;19;20146;-72
2023/05/25 02:17:07;;;;;;;4.97;1.98;;;13.90;99.90;;;;;;7401327;19;20214;-72
2023/05/25 02:19:35;;;;;;;5.07;2.00;;;14.00;99.90;;;;;;7399799;19;20177;-72
2023/05/25 02:22:00;;;;;;;7.97;2.33;;;14.10;99.90;;;;;;7397912;19;20143;-72
2023/05/25 02:24:26;;;;;;;6.38;2.20;;;14.00;99.90;;;;;;7399635;19;20217;-73
2023/05/25 02:26:52;;;;;;;6.03;2.30;;;14.00;99.90;;;;;;7398793;19;20157;-72
2023/05/25 02:29:18;;;;;;;5.05;2.20;;;13.60;99.90;;;;;;7399105;19;20150;-72
2023/05/25 02:31:43;;;;;;;7.38;2.42;;;13.60;99.90;;;;;;7396987;19;20163;-72
2023/05/25 02:34:10;;;;;;;5.95;2.05;;;13.70;99.90;;;;;;7400908;19;20476;-73
2023/05/25 02:36:36;;;;;;;6.38;2.20;;;13.70;99.90;;;;;;7398938;19;20146;-73
2023/05/25 02:39:02;;;;;;;5.50;2.35;;;13.80;99.90;;;;;;7397842;19;20226;-72
2023/05/25 02:41:28;;;;;;;4.15;2.05;;;13.60;99.90;;;;;;7394478;19;20185;-72
2023/05/25 02:43:54;;;;;;;5.15;2.20;;;13.70;99.90;;;;;;7399002;19;20151;-72
2023/05/25 02:46:21;;;;;;;6.15;1.90;;;13.70;99.90;;;;;;7390998;19;20135;-70
2023/05/25 02:48:47;;;;;;;8.10;1.90;;;13.70;99.90;;;;;;7386057;19;20590;-72
2023/05/25 02:51:13;;;;;;;3.63;2.30;;;13.00;99.90;;;;;;7390484;19;20136;-72
2023/05/25 02:53:39;;;;;;;6.10;2.30;;;12.90;99.90;;;;;;7390769;19;20615;-72
2023/05/25 02:56:05;;;;;;;4.38;2.03;;;12.90;99.90;;;;;;7392185;19;20456;-73
2023/05/25 02:58:31;;;;;;;5.20;1.90;;;13.10;99.90;;;;;;7388764;19;20161;-73
2023/05/25 03:00:58;;;;;;;6.38;2.10;;;13.30;99.90;;;;;;7389819;19;20150;-72
2023/05/25 03:03:25;;;;;;;5.65;2.20;;;13.50;99.90;;;;;;7388913;19;20146;-72
2023/05/25 03:05:52;;;;;;;6.80;2.10;;;13.50;99.90;;;;;;7390911;19;20140;-72
2023/05/25 03:08:17;;;;;;;6.77;2.10;;;13.50;99.90;;;;;;7391005;19;20134;-72
2023/05/25 03:10:44;;;;;;;4.10;2.10;;;13.50;99.90;;;;;;7388382;19;20155;-72
2023/05/25 03:13:09;;;;;;;6.15;2.20;;;13.50;99.90;;;;;;7391480;19;20127;-72
2023/05/25 03:15:35;;;;;;;6.25;2.40;;;12.90;99.90;;;;;;7390768;19;20149;-73
2023/05/25 03:18:01;;;;;;;4.10;2.35;;;13.10;99.90;;;;;;7389906;19;20590;-73
2023/05/25 03:20:27;;;;;;;5.50;2.30;;;13.20;99.90;;;;;;7390340;19;20747;-71
2023/05/25 03:22:54;;;;;;;7.20;2.25;;;13.20;99.90;;;;;;7389010;19;20161;-73
2023/05/25 03:25:20;;;;;;;4.90;1.67;;;13.30;99.90;;;;;;7389565;19;20450;-71
2023/05/25 03:27:46;;;;;;;3.73;1.80;;;13.40;99.90;;;;;;7389786;19;20190;-72
2023/05/25 03:30:12;;;;;;;7.63;2.57;;;13.40;99.90;;;;;;7389320;19;20133;-72
2023/05/25 03:32:38;;;;;;;5.80;2.13;;;13.40;99.90;;;;;;7389234;19;20135;-72
2023/05/25 03:35:04;;;;;;;6.53;2.40;;;13.40;99.90;;;;;;7388649;19;20233;-72
2023/05/25 03:37:30;;;;;;;6.33;2.40;;;13.50;99.90;;;;;;7389494;19;20450;-72
2023/05/25 03:39:56;;;;;;;5.63;2.40;;;13.50;99.90;;;;;;7389609;19;20214;-73
2023/05/25 03:42:22;;;;;;;6.35;2.75;;;13.50;99.90;;;;;;7388474;19;20179;-72
2023/05/25 03:44:48;;;;;;;4.50;2.20;;;13.40;99.90;;;;;;7385300;19;20142;-72
2023/05/25 03:47:13;;;;;;;4.03;2.20;;;13.40;99.90;;;;;;7387393;19;20165;-73
2023/05/25 03:49:39;;;;;;;6.00;2.77;;;13.40;99.90;;;;;;7388752;19;20502;-72
2023/05/25 03:52:05;;;;;;;9.52;2.65;;;13.40;99.90;;;;;;7387975;19;20161;-72
2023/05/25 03:54:31;;;;;;;7.47;2.70;;;13.30;99.90;;;;;;7389172;19;20173;-73
2023/05/25 03:56:58;;;;;;;8.52;2.55;;;13.30;99.90;;;;;;7390427;19;20135;-72
2023/05/25 03:59:24;;;;;;;6.68;2.38;;;13.30;99.90;;;;;;7388450;19;20154;-72
2023/05/25 04:01:50;;;;;;;10.52;3.15;;;13.30;99.90;;;;;;7388531;19;20477;-72
2023/05/25 04:04:16;;;;;;;4.77;2.40;;;13.30;99.90;;;;;;7388972;19;20605;-72
2023/05/25 04:06:44;;;;;;;6.03;2.57;;;13.40;99.90;;;;;;7390487;19;20143;-72
2023/05/25 04:09:11;;;;;;;6.45;2.35;;;13.40;99.90;;;;;;7388619;19;20237;-74
2023/05/25 04:11:36;;;;;;;8.67;2.40;;;13.40;99.90;;;;;;7388949;19;20566;-72
2023/05/25 04:14:02;;;;;;;5.35;2.40;;;13.40;99.90;;;;;;7390902;19;20135;-73
2023/05/25 04:16:28;;;;;;;5.13;2.50;;;13.40;99.90;;;;;;7387875;19;20151;-72
2023/05/25 04:18:55;;;;;;;9.07;2.70;;;13.40;99.90;;;;;;7389533;19;20135;-72
2023/05/25 04:21:21;;;;;;;7.70;2.97;;;13.30;99.90;;;;;;7386968;19;20141;-72
2023/05/25 04:23:46;;;;;;;5.85;2.35;;;13.30;99.90;;;;;;7390100;19;20549;-72
2023/05/25 04:26:14;;;;;;;7.43;2.63;;;13.30;99.90;;;;;;7387258;19;20163;-72
2023/05/25 04:28:40;;;;;;;7.53;2.50;;;13.40;99.90;;;;;;7387262;19;20209;-70
2023/05/25 04:31:07;;;;;;;5.50;2.37;;;13.40;99.90;;;;;;7388235;19;20151;-72
2023/05/25 04:33:37;;;;;;;5.82;2.45;;;13.50;99.90;;;;;;7388743;19;20155;-71
2023/05/25 04:36:07;;;;;;;9.00;2.97;;;13.50;99.90;;;;;;7387649;19;20142;-73
2023/05/25 04:38:34;;;;;;;9.03;2.77;;;13.40;99.90;;;;;;7388872;19;20154;-73
2023/05/25 04:41:01;;;;;;;7.30;2.90;;;13.40;99.90;;;;;;7390040;19;20709;-72
2023/05/25 04:43:28;;;;;;;5.28;2.60;;;13.40;99.90;;;;;;7384448;19;20489;-72
2023/05/25 04:45:58;;;;;;;8.32;2.88;;;13.50;99.90;;;;;;7387961;19;20153;-72
2023/05/25 04:48:27;;;;;;;5.68;2.97;;;13.60;99.90;;;;;;7388806;19;20594;-72
2023/05/25 04:50:54;;;;;;;5.77;2.70;;;13.40;99.90;;;;;;7385721;19;20602;-72
2023/05/25 04:53:23;;;;;;;10.27;3.08;;;13.40;99.90;;;;;;7387828;19;20165;-72
2023/05/25 04:55:50;;;;;;;7.83;2.80;;;13.40;99.90;;;;;;7389566;19;20154;-73
2023/05/25 04:58:16;;;;;;;6.63;2.97;;;13.50;99.90;;;;;;7388701;19;20165;-73
2023/05/25 05:00:41;;;;;;;6.55;3.05;;;13.50;99.90;;;;;;7389654;19;20139;-73
2023/05/25 05:03:07;;;;;;;3.67;2.55;;;13.40;99.90;;;;;;7387923;19;20138;-73
2023/05/25 05:05:35;;;;;;;5.68;2.80;;;13.40;99.90;;;;;;7390565;19;20134;-73
2023/05/25 05:08:02;;;;;;;8.65;2.85;;;13.50;99.90;;;;;;7388344;19;20130;-73
2023/05/25 05:10:28;;;;;;;9.32;3.08;;;13.40;99.90;;;;;;7383205;19;20614;-72
2023/05/25 05:12:54;;;;;;;5.23;2.97;;;13.50;99.90;;;;;;7385961;19;20139;-73
2023/05/25 05:15:19;;;;;;;8.18;3.05;;;13.50;99.90;;;;;;7386830;19;20152;-75
2023/05/25 05:17:45;;;;;;;6.63;2.50;;;13.50;99.90;;;;;;7387223;19;20131;-72
2023/05/25 05:20:11;;;;;;;5.83;2.83;;;13.50;99.90;;;;;;7389602;19;20629;-71
2023/05/25 05:22:37;;;;;;;7.17;2.97;;;13.50;99.90;;;;;;7388019;19;20507;-73
2023/05/25 05:25:03;;;;;;;10.35;3.03;;;13.60;99.90;;;;;;7386867;19;20146;-73
2023/05/25 05:27:29;;;;;;;8.95;2.75;;;13.60;99.90;;;;;;7388164;19;20154;-73
2023/05/25 05:29:55;;;;;;;9.45;3.33;;;13.60;99.90;;;;;;7383495;19;20147;-72
2023/05/25 05:32:24;;;;;;;7.22;2.97;;;13.70;99.90;;;;;;7384007;19;20138;-74
2023/05/25 05:34:49;;;;;;;9.05;3.05;;;13.60;99.90;;;;;;7385700;19;20134;-73
2023/05/25 05:37:15;;;;;;;9.27;3.00;;;13.60;99.90;;;;;;7383559;19;20185;-73
2023/05/25 05:39:41;;;;;;;10.57;3.43;;;13.60;99.90;;;;;;7384727;19;20143;-74
2023/05/25 05:42:07;;;;;;;5.40;2.87;;;13.60;99.90;;;;;;7383749;19;20250;-74
2023/05/25 05:44:32;;;;;;;5.35;2.72;;;13.60;99.90;;;;;;7386352;19;20149;-75
2023/05/25 05:47:01;;;;;;;7.65;3.25;;;13.70;99.90;;;;;;7385933;19;20135;-75
2023/05/25 05:49:30;;;;;;;9.10;3.03;;;13.70;99.90;;;;;;7384587;19;20146;-76
2023/05/25 05:51:56;;;;;;;14.17;3.77;;;13.70;99.90;;;;;;7385659;19;20218;-75
2023/05/25 05:54:22;;;;;;;6.10;3.53;;;13.60;99.90;;;;;;7385683;19;20132;-74
2023/05/25 05:56:49;;;;;;;8.07;3.35;;;13.70;99.90;;;;;;7384399;19;20165;-75
2023/05/25 05:59:14;;;;;;;8.32;3.22;;;13.90;99.90;;;;;;7385156;19;20142;-75
2023/05/25 06:01:41;;;;;;;7.97;2.80;;;13.90;99.90;;;;;;7386226;19;20135;-76
2023/05/25 06:04:07;;;;;;;7.38;2.80;;;14.00;99.90;;;;;;7386635;19;20176;-75
2023/05/25 06:06:33;;;;;;;6.55;2.78;;;14.20;99.90;;;;;;7386440;19;20551;-75
2023/05/25 06:09:02;;;;;;;8.02;3.13;;;14.30;99.90;;;;;;7384384;19;20157;-75
2023/05/25 06:11:28;;;;;;;5.40;3.27;;;14.40;99.90;;;;;;7383622;19;20194;-75
2023/05/25 06:13:54;;;;;;;8.43;3.20;;;14.50;99.90;;;;;;7384123;19;20131;-75
2023/05/25 06:16:20;;;;;;;7.32;3.03;;;15.40;99.90;;;;;;7382492;19;20161;-75
2023/05/25 06:18:46;;;;;;;7.32;3.10;;;16.80;99.90;;;;;;7382753;19;20153;-74
2023/05/25 06:21:11;;;;;;;5.10;2.83;;;17.80;99.90;;;;;;7383822;19;20131;-74
2023/05/25 06:23:37;;;;;;;11.00;3.55;;;18.30;99.90;;;;;;7390696;19;20603;-75
2023/05/25 06:26:04;;;;;;;6.75;2.88;;;18.40;99.90;;;;;;7387609;19;20146;-74
2023/05/25 06:28:30;;;;;;;8.50;2.95;;;18.80;99.90;;;;;;7388424;19;20633;-75
2023/05/25 06:30:56;;;;;;;6.28;3.10;;;19.10;99.90;;;;;;7389759;19;20145;-74
2023/05/25 06:33:22;;;;;;;9.82;3.03;;;19.30;99.90;;;;;;7390108;19;20217;-75
2023/05/25 06:35:48;;;;;;;9.07;3.45;;;19.40;99.90;;;;;;7391257;19;20144;-76
2023/05/25 06:38:15;;;;;;;8.73;2.83;;;20.10;99.90;;;;;;7392725;19;20134;-75
2023/05/25 06:40:42;;;;;;;9.15;2.92;;;20.20;99.90;;;;;;7391415;19;20134;-75
2023/05/25 06:43:08;;;;;;;6.85;2.97;;;19.40;99.90;;;;;;7385982;19;20174;-76
2023/05/25 06:45:34;;;;;;;7.25;3.03;;;19.20;99.90;;;;;;7391844;19;20138;-76
2023/05/25 06:48:00;;;;;;;6.70;3.28;;;18.80;99.90;;;;;;7389820;19;20127;-75
2023/05/25 06:50:26;;;;;;;8.60;3.30;;;17.90;99.90;;;;;;7388992;19;20146;-74
2023/05/25 06:52:51;;;;;;;7.97;3.08;;;17.30;99.90;;;;;;7389870;19;20150;-75
2023/05/25 06:55:20;;;;;;;7.15;3.08;;;16.60;99.90;;;;;;7390412;19;20610;-74
2023/05/25 06:57:46;;;;;;;6.18;3.10;;;16.30;99.90;;;;;;7389151;19;20157;-75
2023/05/25 07:00:12;;;;;;;5.93;3.40;;;16.40;99.90;;;;;;7391631;19;20558;-75
2023/05/25 07:02:38;;;;;;;11.40;4.82;;;16.30;99.90;;;;;;7392260;19;20202;-76
2023/05/25 07:05:05;;;;;;;8.82;4.05;;;16.20;99.90;;;;;;7389579;19;20171;-75
2023/05/25 07:07:31;;;;;;;8.05;3.28;;;15.90;99.90;;;;;;7390033;19;20131;-75
2023/05/25 07:09:57;;;;;;;6.72;3.20;;;15.60;99.90;;;;;;7389583;19;20176;-74
2023/05/25 07:12:23;;;;;;;7.63;3.58;;;15.50;99.90;;;;;;7388336;19;20154;-75
2023/05/25 07:14:49;;;;;;;12.10;3.50;;;15.40;99.90;;;;;;7390896;19;20180;-75
2023/05/25 07:17:15;;;;;;;8.15;3.25;;;15.30;99.90;;;;;;7387304;19;20155;-74
2023/05/25 07:19:42;;;;;;;6.80;3.17;;;15.20;99.90;;;;;;7390098;19;20156;-73
2023/05/25 07:22:11;;;;;;;15.30;4.22;;;15.30;99.90;;;;;;7387471;19;20143;-74
2023/05/25 07:24:37;;;;;;;10.32;3.53;;;15.30;99.90;;;;;;7389451;19;20494;-73
2023/05/25 07:27:03;;;;;;;8.02;3.60;;;15.20;99.90;;;;;;7388153;19;20163;-73
2023/05/25 07:29:28;;;;;;;11.88;3.22;;;15.30;99.90;;;;;;7388308;19;20468;-74
2023/05/25 07:31:54;;;;;;;9.60;3.85;;;15.30;99.90;;;;;;7386597;19;20600;-75
2023/05/25 07:34:20;;;;;;;9.57;3.72;;;15.30;99.90;;;;;;7389615;19;20484;-73
2023/05/25 07:36:53;;;;;;;8.68;3.30;;;15.30;99.90;;;;;;7388747;19;20150;-75
2023/05/25 07:39:19;;;;;;;7.32;3.30;;;15.40;99.90;;;;;;7388138;19;20150;-75
2023/05/25 07:41:45;;;;;;;6.97;3.67;;;15.60;99.90;;;;;;7386566;19;20169;-75
2023/05/25 07:44:11;;;;;;;11.05;3.65;;;15.60;99.90;;;;;;7388506;19;20134;-73
2023/05/25 07:46:36;;;;;;;8.00;4.10;;;15.50;99.90;;;;;;7388543;19;20147;-74
2023/05/25 07:49:03;;;;;;;9.38;3.78;;;15.60;99.90;;;;;;7387791;19;20207;-74
2023/05/25 07:51:31;;;;;;;5.80;3.65;;;15.70;99.90;;;;;;7389073;19;20157;-73
2023/05/25 07:53:57;;;;;;;10.45;3.53;;;15.80;99.90;;;;;;7387546;19;20211;-73
2023/05/25 07:56:24;;;;;;;9.65;4.10;;;15.80;99.90;;;;;;7388143;19;20213;-74
2023/05/25 07:58:51;;;;;;;9.90;3.28;;;15.90;99.90;;;;;;7389290;19;20165;-73
2023/05/25 08:01:17;;;;;;;11.68;4.03;;;15.90;99.90;;;;;;7387125;19;20167;-75
2023/05/25 08:03:43;;;;;;;7.43;3.25;;;16.10;99.90;;;;;;7388874;19;20852;-73
2023/05/25 08:06:08;;;;;;;11.77;4.35;;;16.50;99.90;;;;;;7389577;19;20146;-74
2023/05/25 08:08:36;;;;;;;6.43;3.60;;;16.80;99.90;;;;;;7389694;19;20139;-76
2023/05/25 08:11:02;;;;;;;9.30;3.72;;;17.40;99.90;;;;;;7385969;19;20228;-75
2023/05/25 08:13:27;;;;;;;9.85;3.90;;;17.60;99.90;;;;;;7388152;19;20154;-73
2023/05/25 08:15:53;;;;;;;6.60;3.42;;;17.70;99.90;;;;;;7390831;19;20138;-76
2023/05/25 08:18:19;;;;;;;7.10;3.70;;;17.90;99.90;;;;;;7388894;19;20151;-74
2023/05/25 08:20:45;;;;;;;5.53;3.60;;;18.20;99.90;;;;;;7387622;19;20481;-74
2023/05/25 08:23:11;;;;;;;7.10;3.92;;;18.60;99.90;;;;;;7385850;19;20222;-74
2023/05/25 08:25:38;;;;;;;10.68;4.10;;;18.80;99.90;;;;;;7386672;19;20705;-74
2023/05/25 08:28:04;;;;;;;10.65;4.07;;;18.90;99.90;;;;;;7386843;19;20168;-74
2023/05/25 08:30:31;;;;;;;5.07;3.47;;;19.10;99.90;;;;;;7385308;19;20131;-74
2023/05/25 08:32:57;;;;;;;6.15;3.63;;;19.60;99.90;;;;;;7387653;19;20139;-76
2023/05/25 08:35:22;;;;;;;9.18;3.50;;;19.90;99.90;;;;;;7386861;19;20570;-75
2023/05/25 08:37:48;;;;;;;7.13;3.63;;;19.90;99.90;;;;;;7386652;19;20138;-75
2023/05/25 08:40:15;;;;;;;11.40;4.32;;;19.60;99.90;;;;;;7391020;19;20135;-75
2023/05/25 08:42:44;;;;;;;10.40;6.22;;;19.20;99.90;;;;;;7385662;19;20162;-74
2023/05/25 08:45:11;;;;;;;7.38;4.10;;;19.30;99.90;;;;;;7386189;19;20668;-75
2023/05/25 08:47:41;;;;;;;7.63;3.72;;;19.50;99.90;;;;;;7380338;19;20194;-76
2023/05/25 08:50:09;;;;;;;9.20;3.90;;;19.50;99.90;;;;;;7386311;19;20172;-74
2023/05/25 08:52:41;;;;;;;10.82;4.07;;;19.40;99.90;;;;;;7385306;19;20775;-74
2023/05/25 08:55:08;;;;;;;10.00;4.43;;;19.40;99.90;;;;;;7386477;19;20131;-75
2023/05/25 08:58:05;;;;;;;7.63;3.88;;;19.20;99.90;;;;;;7387655;19;21051;-75
2023/05/25 09:00:35;;;;;;;9.27;4.32;;;19.10;99.90;;;;;;7388963;19;20231;-75
2023/05/25 09:03:14;;;;;;;9.95;3.70;;;19.00;99.90;;;;;;7385092;19;20150;-75
2023/05/25 09:05:40;;;;;;;9.30;3.72;;;19.20;99.90;;;;;;7386966;19;20130;-74
2023/05/25 09:08:08;;;;;;;10.23;4.68;;;19.10;99.90;;;;;;7388452;19;20139;-74
2023/05/25 09:10:34;;;;;;;7.35;4.10;;;18.90;99.90;;;;;;7385498;19;20170;-75
2023/05/25 09:13:01;;;;;;;7.30;3.90;;;19.10;99.90;;;;;;7387976;19;20127;-74
2023/05/25 09:15:27;;;;;;;8.73;4.13;;;19.50;99.90;;;;;;7386425;19;20156;-75
2023/05/25 09:17:53;;;;;;;6.93;4.00;;;19.60;99.90;;;;;;7384826;19;20146;-74
2023/05/25 09:20:19;;;;;;;7.72;3.72;;;19.60;99.90;;;;;;7387238;19;20572;-74
2023/05/25 09:22:46;;;;;;;6.88;4.13;;;19.70;99.90;;;;;;7386203;19;20206;-75
2023/05/25 09:25:16;;;;;;;6.90;3.83;;;19.60;99.90;;;;;;7386029;19;20138;-74
2023/05/25 09:27:42;;;;;;;8.07;3.60;;;19.40;99.90;;;;;;7382781;19;20134;-74
2023/05/25 09:30:08;;;;;;;6.05;3.72;;;19.10;99.90;;;;;;7384580;19;20623;-74
2023/05/25 09:32:35;;;;;;;8.00;4.18;;;19.00;99.90;;;;;;7382768;19;20150;-75
2023/05/25 09:35:14;;;;;;;8.35;3.60;;;18.90;99.90;;;;;;7387409;19;20139;-74
2023/05/25 09:37:41;;;;;;;8.07;4.28;;;18.90;99.90;;;;;;7385908;19;20617;-74
2023/05/25 09:40:09;;;;;;;6.80;3.97;;;18.80;99.90;;;;;;7385116;19;20145;-73
2023/05/25 09:42:36;;;;;;;8.55;4.07;;;18.80;99.90;;;;;;7381223;19;20197;-75
2023/05/25 09:45:03;;;;;;;8.98;4.00;;;18.70;99.90;;;;;;7384495;19;20147;-75
2023/05/25 09:47:29;;;;;;;6.45;3.90;;;18.70;99.90;;;;;;7385016;19;20173;-73
2023/05/25 09:49:59;;;;;;;9.77;4.70;;;18.80;99.90;;;;;;7386730;19;20450;-74
2023/05/25 09:52:25;;;;;;;8.38;4.05;;;18.80;99.90;;;;;;7385056;19;20214;-73
2023/05/25 09:54:51;;;;;;;8.55;4.35;;;19.00;99.90;;;;;;7384783;19;20151;-73
2023/05/25 09:57:18;;;;;;;9.00;3.90;;;19.30;99.90;;;;;;7386813;19;20150;-74
2023/05/25 09:59:44;;;;;;;6.88;3.47;;;19.20;99.90;;;;;;7390561;19;20682;-73
2023/05/25 10:02:14;;;;;;;7.55;3.88;;;19.30;99.90;;;;;;7391557;19;20135;-74
2023/05/25 10:04:40;;;;;;;8.32;3.90;;;19.50;99.90;;;;;;7393272;19;20452;-74
2023/05/25 10:07:07;;;;;;;9.10;5.78;;;19.60;99.90;;;;;;7390653;19;20144;-73
2023/05/25 10:09:44;;;;;;;9.65;4.53;;;19.70;99.90;;;;;;7391161;19;20135;-76
2023/05/25 10:12:13;;;;;;;8.45;3.90;;;19.60;99.90;;;;;;7393222;19;20593;-73
2023/05/25 10:14:44;;;;;;;6.78;3.80;;;19.50;99.90;;;;;;7386985;19;20142;-74
2023/05/25 10:17:13;;;;;;;8.65;3.80;;;19.50;99.90;;;;;;7392356;19;20226;-75
2023/05/25 10:19:58;;;;;;;8.48;4.05;;;19.70;99.90;;;;;;7386169;19;20142;-73
2023/05/25 10:22:35;;;;;;;6.57;4.07;;;19.90;99.90;;;;;;7390334;19;20263;-74
2023/05/25 10:25:19;;;;;;;5.95;3.25;;;19.90;99.90;;;;;;7391001;19;20160;-75
2023/05/25 10:28:01;;;;;;;6.78;3.67;;;19.80;99.90;;;;;;7392790;19;20611;-75
2023/05/25 10:30:28;;;;;;;10.75;3.90;;;19.90;99.90;;;;;;7391247;19;20151;-75
2023/05/25 10:32:55;;;;;;;9.10;3.72;;;20.10;99.90;;;;;;7389542;19;20131;-75
2023/05/25 10:35:22;;;;;;;9.13;3.58;;;20.30;99.90;;;;;;7388635;19;20524;-73
2023/05/25 10:37:51;;;;;;;7.10;3.30;;;20.40;99.90;;;;;;7389702;19;20151;-73
2023/05/25 10:40:20;;;;;;;8.40;3.67;;;20.40;99.90;;;;;;7391522;19;20134;-74
2023/05/25 10:42:46;;;;;;;7.68;3.88;;;20.40;99.90;;;;;;7390276;19;20154;-74
2023/05/25 10:45:12;;;;;;;8.50;4.10;;;20.30;99.90;;;;;;7391196;19;20164;-74
2023/05/25 10:47:42;;;;;;;7.35;3.65;;;20.40;99.90;;;;;;7390672;19;20177;-74
2023/05/25 10:50:20;;;;;;;7.55;4.47;;;20.40;99.90;;;;;;7391205;19;20135;-74
2023/05/25 10:53:00;;;;;;;6.75;3.30;;;20.20;99.90;;;;;;7386993;19;20142;-74
2023/05/25 10:55:30;;;;;;;6.57;3.65;;;20.20;99.90;;;;;;7388578;19;20233;-73
2023/05/25 10:58:16;;;;;;;7.75;4.10;;;20.30;99.90;;;;;;7387143;19;20157;-74
2023/05/25 11:00:42;;;;;;;6.07;3.42;;;20.70;99.90;;;;;;7392972;19;20561;-75
2023/05/25 11:03:09;;;;;;;7.00;3.97;;;20.80;99.90;;;;;;7388427;19;20167;-74
2023/05/25 11:05:37;;;;;;;8.30;3.80;;;21.00;99.90;;;;;;7389516;19;20230;-74
2023/05/25 11:08:08;;;;;;;6.43;3.60;;;20.80;99.90;;;;;;7385976;19;20145;-74
2023/05/25 11:10:40;;;;;;;6.75;3.38;;;20.70;99.90;;;;;;7389872;19;20611;-73
2023/05/25 11:13:31;;;;;;;7.28;4.00;;;20.70;99.90;;;;;;7392622;19;20160;-74
2023/05/25 11:16:29;;;;;;;6.25;3.83;;;20.60;99.90;;;;;;7389548;19;20157;-74
2023/05/25 11:18:57;;;;;;;5.60;3.20;;;20.50;99.90;;;;;;7389301;19;20457;-73
2023/05/25 11:21:43;;;;;;;7.32;3.45;;;20.60;99.90;;;;;;7388611;19;20526;-74
2023/05/25 11:24:16;;;;;;;6.30;3.33;;;20.60;99.90;;;;;;7388905;19;20153;-75
2023/05/25 11:26:58;;;;;;;7.03;3.17;;;20.70;99.90;;;;;;7389026;19;20471;-76
2023/05/25 11:29:25;;;;;;;9.45;4.32;;;20.90;99.90;;;;;;7388339;19;20505;-75
2023/05/25 11:31:53;;;;;;;5.22;3.42;;;20.90;99.90;;;;;;7389215;19;20169;-75
2023/05/25 11:34:21;;;;;;;4.47;3.65;;;21.10;99.90;;;;;;7386320;19;20206;-73
2023/05/25 11:36:47;;;;;;;5.15;3.60;;;21.10;99.90;;;;;;7389297;19;20139;-73
2023/05/25 11:39:12;;;;;;;6.88;3.63;;;21.10;99.90;;;;;;7388467;19;20147;-76
2023/05/25 11:41:45;;;;;;;6.75;3.58;;;21.00;99.90;;;;;;7388340;19;20493;-74
2023/05/25 11:44:26;;;;;;;5.63;3.30;;;20.90;99.90;;;;;;7385698;19;20146;-76
2023/05/25 11:47:00;;;;;;;6.47;3.50;;;21.00;99.90;;;;;;7389561;19;20154;-76
2023/05/25 11:49:55;;;;;;;7.18;3.47;;;21.10;99.90;;;;;;7386722;19;20154;-77
2023/05/25 11:52:23;;;;;;;6.28;3.88;;;21.20;99.90;;;;;;7387552;19;20155;-77
2023/05/25 11:54:49;;;;;;;7.10;3.40;;;21.20;99.90;;;;;;7389738;19;20157;-75
2023/05/25 11:57:23;;;;;;;6.38;3.60;;;21.10;99.90;;;;;;7388499;19;20163;-75
2023/05/25 12:00:05;;;;;;;4.70;3.17;;;21.10;99.90;;;;;;7385352;19;20202;-76
2023/05/25 12:02:37;;;;;;;7.00;3.60;;;21.30;99.90;;;;;;7386826;19;20138;-75
2023/05/25 12:05:03;;;;;;;5.65;3.15;;;21.40;99.90;;;;;;7386704;19;20138;-73
2023/05/25 12:07:41;;;;;;;5.43;3.60;;;21.50;99.90;;;;;;7388155;19;20151;-74
2023/05/25 12:10:15;;;;;;;7.00;3.45;;;21.50;99.90;;;;;;7385450;19;20496;-76
2023/05/25 12:12:57;;;;;;;7.75;3.78;;;21.40;99.90;;;;;;7389347;19;20238;-75
2023/05/25 12:15:23;;;;;;;5.72;3.33;;;21.30;99.90;;;;;;7389657;19;20151;-74
2023/05/25 12:17:52;;;;;;;7.32;3.70;;;21.30;99.90;;;;;;7387035;19;20142;-74
2023/05/25 12:20:18;;;;;;;9.98;3.70;;;21.30;99.90;;;;;;7388194;19;20146;-74
2023/05/25 12:22:45;;;;;;;8.07;4.15;;;21.30;99.90;;;;;;7389426;19;20237;-74
2023/05/25 12:25:12;;;;;;;6.25;4.10;;;21.40;99.90;;;;;;7385230;19;20146;-73
2023/05/25 12:27:41;;;;;;;6.28;3.80;;;21.40;99.90;;;;;;7390104;19;20138;-73
2023/05/25 12:30:09;;;;;;;8.40;3.55;;;21.50;99.90;;;;;;7385930;19;20139;-74
2023/05/25 12:32:50;;;;;;;7.60;3.60;;;21.50;99.90;;;;;;7387512;19;20159;-74
2023/05/25 12:35:16;;;;;;;6.35;3.60;;;21.50;99.90;;;;;;7387121;19;20149;-73
2023/05/25 12:37:42;;;;;;;7.50;4.18;;;21.50;99.90;;;;;;7383644;19;20171;-73
2023/05/25 12:40:23;;;;;;;10.48;4.30;;;21.60;99.90;;;;;;7388185;19;20149;-73
2023/05/25 12:42:56;;;;;;;14.05;4.28;;;21.70;99.90;;;;;;7385392;19;20154;-73
2023/05/25 12:45:22;;;;;;;10.15;4.28;;;21.60;99.90;;;;;;7386462;19;20711;-73
2023/05/25 12:47:48;;;;;;;7.40;3.30;;;21.50;99.90;;;;;;7391454;19;20623;-73
2023/05/25 12:50:14;;;;;;;7.20;3.53;;;21.50;99.90;;;;;;7387260;19;20127;-74